Aérodrome :
LOGIN :

S'inscrire | Disclaimer

   EN    FR    IT 

 










Légende :    VFR   VFR Marginal   IFR   IFR Intensif   IFR Très Intensif
Visi : 
Plafond : 
>= 8 km
>= 3000ft
5 à 8 km
1000 à 3000 ft
1500m à 5 km
500 à 1000 ft
800 à 1500m
200 à 500 ft
< 800m
< 200 ft
Symboles :   Orages  Brouillard  Fortes neiges  Fortes précipitations  Vent > 20 kt
SIGMETs :   Divers  Orages  Givrage  Turbulence  Onde Orograph.  Cendres Volcan.






- Altitude de l'aérodrome : 24 ft
- Code IATA : IBZ


LEIB - Ibiza

DERNIER METAR :
  • 300730Z 24006KT 9999 FEW010 SCT015 BKN020 15/13 Q1013 NOSIG

METARs EXPIRÉS :
  • 300700Z 23008KT 9999 FEW012 BKN018 15/12 Q1012 NOSIG
  • 300630Z 24009KT 9999 FEW012 BKN018 15/13 Q1012 NOSIG
  • 300600Z 23008KT 9999 FEW012 SCT020 15/12 Q1012 NOSIG
  • 300530Z 23009KT 9999 FEW014 SCT020 15/12 Q1012 NOSIG
  • 300500Z 23011KT 9999 3000 FEW014 15/12 Q1012 NOSIG

TAF TAF LEIB
Valide du 30 à 03h jusqu'au 31 à 03h UTC


300200Z 3003/3103 23012KT 9999 FEW020 TX16/3012Z TN12/3006Z
BECMG 3005/3007 03012KT
PROB30
TEMPO 3008/3103 RA BKN030
TEMPO 3012/3018 02015G25KT
BECMG 3021/3023 02006KT



MET'MAP, la Météo Aéronautique d'un coup d'oeil ! - Copyright ORBIFLY Décembre 2007 - Disclaimer

ORBIFLY MET'MAP TEAM :

Programmation & Développement : Alexandra Zaïnal
Sur une idée originale de : Baudouin d'Aumeries
Assistance à la programmation : Marc-Olivier Méhu
Soutien technique & logistique : Manuel Goepfert

Contact : metmap@orbifly.com




SOURCES & CREDITS :

   NOAA